Scotland, Georgia
Current Conditions -  °F | °C
As of 12:35 AM on Tuesday 27 Jan 2015 (Local Time) from KAZE Reporting Station
Overcast Overcast  
Wind Chill: 37°   Ceiling: 10000
Heat Index: 40°   Visibility: 10mi
Dew Point: 34°   Wind: 5mph
Humidity: 77%   Direction: 290°WNW
Pressure: 29.94"   Gusts: NA
Location:  32.05°N, 82.82°W
Report Text: KAZE 270535Z AUTO 29004KT 10SM BKN100 OVC120 05/01 A2994 RMK AO2 T00470010
Loading
Personal Weather Stations






























Interactive Weather Map New forecast layout! Learn more

10-Day Weather Forecast

Advertisements
Track Severe Weather on mobile